createdAt,value
2018-07-13T00:02:01.139Z,53.62
2018-07-13T00:06:04.616Z,53.03
2018-07-13T00:10:08.073Z,53.76
2018-07-13T00:14:27.062Z,54.47
2018-07-13T00:18:30.887Z,54.31
2018-07-13T00:22:34.379Z,54.46
2018-07-13T00:26:38.531Z,55.23
2018-07-13T00:30:41.991Z,55.08
2018-07-13T00:34:45.481Z,54.63
2018-07-13T00:38:48.939Z,55.12
2018-07-13T00:42:52.443Z,54.78
2018-07-13T00:46:55.911Z,54.01
2018-07-13T00:50:59.362Z,54.21
2018-07-13T00:55:02.816Z,53.99
2018-07-13T00:59:06.363Z,54.49
2018-07-13T01:03:10.771Z,54.18
2018-07-13T01:07:14.229Z,53.83
2018-07-13T01:11:17.776Z,54.02
2018-07-13T01:15:21.217Z,54.22
2018-07-13T01:19:24.654Z,54.14
2018-07-13T01:23:29.167Z,54.48
2018-07-13T01:27:32.634Z,54.79
2018-07-13T01:31:36.070Z,54.96
2018-07-13T01:35:39.559Z,55.04
2018-07-13T01:39:42.998Z,54.72
2018-07-13T01:43:46.500Z,55.14
2018-07-13T01:47:49.989Z,55.22
2018-07-13T01:51:53.493Z,55.32
2018-07-13T01:55:56.986Z,55.58
2018-07-13T02:00:00.410Z,55.23
2018-07-13T02:04:03.898Z,55.20
2018-07-13T02:08:07.363Z,55.69
2018-07-13T02:12:10.926Z,55.86
2018-07-13T02:16:14.423Z,55.43
2018-07-13T02:20:17.859Z,55.85
2018-07-13T02:24:21.438Z,55.91
2018-07-13T02:28:24.889Z,56.26
2018-07-13T02:32:28.324Z,56.06
2018-07-13T02:36:31.867Z,56.28
2018-07-13T02:40:35.428Z,56.23
2018-07-13T02:44:38.876Z,56.28
2018-07-13T02:48:42.352Z,56.21
2018-07-13T02:52:45.857Z,55.88
2018-07-13T02:56:49.311Z,55.98
2018-07-13T03:00:52.743Z,55.58
2018-07-13T03:04:56.195Z,55.83
2018-07-13T03:08:59.796Z,55.44
2018-07-13T03:13:03.269Z,55.40
2018-07-13T03:17:06.803Z,55.45
2018-07-13T03:21:10.234Z,55.34
2018-07-13T03:25:13.696Z,55.27
2018-07-13T03:29:17.138Z,55.46
2018-07-13T03:33:20.603Z,55.45
2018-07-13T03:37:24.020Z,55.49
2018-07-13T03:41:27.422Z,55.49
2018-07-13T03:45:30.884Z,55.39
2018-07-13T03:49:34.348Z,55.78
2018-07-13T03:53:37.828Z,56.02
2018-07-13T03:57:41.271Z,56.08
2018-07-13T04:01:44.758Z,56.43
2018-07-13T04:05:48.232Z,56.24
2018-07-13T04:09:51.718Z,56.82
2018-07-13T04:13:55.148Z,56.45
2018-07-13T04:17:58.620Z,57.13
2018-07-13T04:22:02.102Z,56.59
2018-07-13T04:26:05.545Z,56.41
2018-07-13T04:30:08.990Z,56.87
2018-07-13T04:34:12.594Z,57.54
2018-07-13T04:38:16.017Z,57.40
2018-07-13T04:42:19.460Z,56.64
2018-07-13T04:46:22.953Z,56.44
2018-07-13T04:50:26.442Z,56.66
2018-07-13T04:54:29.903Z,56.42
2018-07-13T04:58:33.354Z,55.87
2018-07-13T05:02:37.070Z,55.45
2018-07-13T05:06:40.487Z,55.32
2018-07-13T05:10:43.994Z,55.07
2018-07-13T05:14:47.425Z,54.96
2018-07-13T05:18:50.890Z,53.84
2018-07-13T05:22:54.356Z,53.75
2018-07-13T05:26:57.857Z,54.16
2018-07-13T05:31:01.353Z,53.63
2018-07-13T05:35:04.883Z,52.55
2018-07-13T05:39:10.413Z,52.60
2018-07-13T05:43:13.854Z,51.07
2018-07-13T05:47:17.277Z,51.53
2018-07-13T05:51:20.718Z,51.32
2018-07-13T05:55:24.366Z,50.99
2018-07-13T05:59:28.074Z,50.10
2018-07-13T06:03:32.549Z,49.75
2018-07-13T06:07:36.049Z,50.44
2018-07-13T06:11:39.970Z,49.85
2018-07-13T06:15:43.402Z,49.26
2018-07-13T06:19:47.231Z,48.80
2018-07-13T06:23:50.898Z,48.45
2018-07-13T06:27:54.415Z,48.50
2018-07-13T06:31:57.862Z,47.54
2018-07-13T06:36:01.380Z,47.37
2018-07-13T06:40:04.932Z,47.48
2018-07-13T06:44:08.413Z,48.45
2018-07-13T06:48:11.891Z,47.10
2018-07-13T06:52:15.342Z,47.12
2018-07-13T06:56:18.772Z,46.50
2018-07-13T07:00:57.909Z,47.14
2018-07-13T07:05:15.210Z,45.72
2018-07-13T07:09:18.671Z,46.52
2018-07-13T07:13:31.253Z,45.80
2018-07-13T07:17:34.927Z,46.21
2018-07-13T07:21:38.406Z,46.92
2018-07-13T07:25:41.845Z,45.87
2018-07-13T07:29:45.278Z,46.22
2018-07-13T07:33:48.655Z,44.98
2018-07-13T07:37:52.080Z,46.37
2018-07-13T07:41:55.521Z,44.84
2018-07-13T07:45:59.012Z,44.51
2018-07-13T07:50:02.536Z,43.95
2018-07-13T07:54:06.374Z,43.49
2018-07-13T07:58:09.825Z,43.19
2018-07-13T08:02:13.283Z,44.47
2018-07-13T08:06:16.850Z,44.59
2018-07-13T08:10:20.120Z,43.61
2018-07-13T08:14:23.555Z,44.20
2018-07-13T08:18:26.987Z,43.64
2018-07-13T08:22:40.088Z,43.79
2018-07-13T08:26:43.647Z,42.90
2018-07-13T08:30:51.615Z,42.91
2018-07-13T08:34:55.099Z,42.36
2018-07-13T08:38:58.534Z,42.31
2018-07-13T08:43:01.942Z,42.31
2018-07-13T08:47:05.357Z,42.49
2018-07-13T08:51:08.777Z,41.64
2018-07-13T08:55:13.591Z,41.52
2018-07-13T08:59:17.037Z,41.32
2018-07-13T09:03:20.532Z,41.06
2018-07-13T09:07:24.015Z,41.44
2018-07-13T09:11:27.482Z,42.02
2018-07-13T09:15:30.901Z,42.31
2018-07-13T09:19:34.356Z,40.55
2018-07-13T09:23:37.921Z,40.89
2018-07-13T09:27:41.760Z,41.76
2018-07-13T09:31:45.183Z,40.77
2018-07-13T09:35:48.675Z,41.31
2018-07-13T09:39:52.076Z,40.43
2018-07-13T09:43:55.550Z,40.78
2018-07-13T09:47:58.949Z,40.82
2018-07-13T09:52:02.424Z,39.71
2018-07-13T09:56:05.862Z,40.71
2018-07-13T10:00:11.417Z,40.85
2018-07-13T10:04:14.840Z,39.51
2018-07-13T10:08:18.286Z,39.98
2018-07-13T10:12:21.734Z,40.83
2018-07-13T10:16:25.158Z,40.29
2018-07-13T10:20:28.557Z,39.18
2018-07-13T10:24:33.108Z,39.81
2018-07-13T10:28:38.765Z,39.43
2018-07-13T10:32:43.575Z,39.58
2018-07-13T10:36:52.406Z,40.63
2018-07-13T10:40:55.870Z,39.56
2018-07-13T10:44:59.308Z,39.83
2018-07-13T10:49:02.721Z,38.76
2018-07-13T10:53:06.262Z,39.22
2018-07-13T10:57:09.677Z,38.16
2018-07-13T11:01:13.112Z,37.53
2018-07-13T11:05:16.542Z,38.45
2018-07-13T11:09:19.978Z,38.54
2018-07-13T11:13:23.395Z,38.40
2018-07-13T11:17:26.798Z,37.52
2018-07-13T11:21:30.277Z,38.54
2018-07-13T11:25:33.807Z,37.73
2018-07-13T11:29:37.253Z,37.35
2018-07-13T11:33:40.700Z,37.25
2018-07-13T11:37:44.134Z,37.04
2018-07-13T11:41:47.659Z,37.37
2018-07-13T11:45:51.087Z,37.49
2018-07-13T11:49:54.486Z,37.27
2018-07-13T11:53:58.047Z,37.32
2018-07-13T11:58:01.466Z,36.18
2018-07-13T12:02:04.985Z,36.73
2018-07-13T12:06:08.598Z,37.65
2018-07-13T12:10:12.037Z,35.97
2018-07-13T12:14:15.499Z,36.48
2018-07-13T12:18:18.985Z,37.20
2018-07-13T12:22:22.433Z,36.15
2018-07-13T12:26:25.850Z,35.44
2018-07-13T12:30:29.485Z,34.78
2018-07-13T12:34:32.915Z,36.35
2018-07-13T12:38:36.396Z,39.22
2018-07-13T12:42:39.838Z,37.84
2018-07-13T12:46:43.285Z,37.67
2018-07-13T12:50:46.775Z,38.70
2018-07-13T12:54:50.282Z,37.08
2018-07-13T12:58:53.762Z,36.47
2018-07-13T13:02:57.212Z,36.84
2018-07-13T13:07:00.629Z,37.00
2018-07-13T13:11:04.049Z,40.20
2018-07-13T13:15:07.849Z,37.29
2018-07-13T13:19:11.281Z,38.84
2018-07-13T13:23:14.786Z,38.19
2018-07-13T13:27:18.248Z,38.64
2018-07-13T13:31:21.715Z,36.86
2018-07-13T13:35:25.150Z,36.96
2018-07-13T13:39:28.591Z,36.49
2018-07-13T13:43:32.064Z,36.74
2018-07-13T13:47:35.487Z,37.12
2018-07-13T13:51:38.998Z,37.60
2018-07-13T13:55:42.422Z,36.11
2018-07-13T13:59:45.900Z,35.78
2018-07-13T14:03:49.396Z,36.50
2018-07-13T14:07:52.810Z,35.72
2018-07-13T14:11:56.287Z,37.13
2018-07-13T14:15:59.709Z,36.75
2018-07-13T14:20:03.123Z,38.14
2018-07-13T14:24:06.648Z,37.49
2018-07-13T14:28:10.094Z,39.15
2018-07-13T14:32:13.509Z,45.15
2018-07-13T14:36:16.976Z,45.61
2018-07-13T14:40:20.421Z,46.96
2018-07-13T14:44:23.814Z,46.86
2018-07-13T14:48:27.278Z,47.67
2018-07-13T14:52:30.925Z,48.32
2018-07-13T14:56:34.521Z,48.94
2018-07-13T15:00:37.931Z,49.76
2018-07-13T15:04:41.420Z,50.06
2018-07-13T15:08:44.897Z,50.28
2018-07-13T15:12:48.313Z,49.10
2018-07-13T15:16:51.779Z,48.16
2018-07-13T15:20:55.210Z,48.31
2018-07-13T15:24:58.678Z,48.37
2018-07-13T15:29:02.085Z,49.13
2018-07-13T15:33:05.561Z,49.53
2018-07-13T15:37:09.002Z,50.16
2018-07-13T15:41:12.416Z,49.17
2018-07-13T15:45:15.851Z,49.82
2018-07-13T15:49:19.306Z,50.18
2018-07-13T15:53:22.743Z,49.37
2018-07-13T15:57:26.178Z,49.93
2018-07-13T16:01:29.594Z,49.00
2018-07-13T16:05:33.077Z,48.13
2018-07-13T16:09:36.510Z,48.98
2018-07-13T16:13:39.937Z,48.86
2018-07-13T16:17:43.620Z,49.34
2018-07-13T16:21:47.036Z,49.15
2018-07-13T16:25:50.622Z,48.97
2018-07-13T16:29:54.057Z,48.87
2018-07-13T16:33:57.532Z,47.57
2018-07-13T16:38:00.947Z,48.54
2018-07-13T16:42:04.365Z,48.46
2018-07-13T16:46:07.809Z,48.54
2018-07-13T16:50:11.224Z,48.74
2018-07-13T16:54:14.738Z,48.54
2018-07-13T16:58:18.178Z,49.70
2018-07-13T17:02:21.636Z,48.97
2018-07-13T17:06:25.092Z,49.71
2018-07-13T17:10:28.517Z,49.06
2018-07-13T17:14:31.966Z,50.18
2018-07-13T17:18:35.399Z,49.49
2018-07-13T17:22:38.855Z,49.35
2018-07-13T17:26:42.288Z,48.76
2018-07-13T17:30:45.699Z,49.07
2018-07-13T17:34:49.191Z,49.29
2018-07-13T17:38:52.625Z,49.84
2018-07-13T17:42:56.113Z,49.51
2018-07-13T17:46:59.508Z,49.63
2018-07-13T17:51:02.924Z,50.38
2018-07-13T17:55:06.375Z,49.42
2018-07-13T17:59:09.833Z,49.94
2018-07-13T18:03:13.287Z,50.01
2018-07-13T18:07:16.824Z,50.62
2018-07-13T18:11:20.282Z,51.25
2018-07-13T18:15:23.934Z,50.72
2018-07-13T18:19:27.393Z,51.43
2018-07-13T18:23:30.833Z,51.46
2018-07-13T18:27:34.254Z,50.76
2018-07-13T18:31:37.676Z,50.77
2018-07-13T18:35:41.178Z,51.16
2018-07-13T18:39:44.704Z,51.55
2018-07-13T18:43:48.193Z,50.94
2018-07-13T18:47:52.000Z,50.84
2018-07-13T18:51:55.772Z,50.90
2018-07-13T18:55:59.239Z,51.63
2018-07-13T19:00:02.637Z,51.95
2018-07-13T19:04:06.099Z,51.38
2018-07-13T19:08:09.537Z,52.08
2018-07-13T19:12:13.006Z,51.43
2018-07-13T19:16:16.437Z,51.17
2018-07-13T19:20:19.952Z,51.88
2018-07-13T19:24:23.414Z,51.31
2018-07-13T19:28:26.839Z,51.89
2018-07-13T19:32:30.423Z,50.89
2018-07-13T19:36:33.932Z,51.36
2018-07-13T19:40:37.348Z,51.42
2018-07-13T19:44:41.032Z,51.14
2018-07-13T19:48:44.464Z,51.01
2018-07-13T19:52:48.260Z,51.28
2018-07-13T19:56:51.691Z,50.95
2018-07-13T20:00:55.118Z,50.38
2018-07-13T20:04:58.545Z,50.43
2018-07-13T20:09:02.041Z,50.69
2018-07-13T20:13:05.462Z,50.65
2018-07-13T20:17:08.905Z,51.17
2018-07-13T20:21:12.343Z,50.98
2018-07-13T20:25:15.801Z,51.60
2018-07-13T20:29:19.304Z,51.50
2018-07-13T20:33:22.762Z,51.65
2018-07-13T20:37:26.207Z,50.93
2018-07-13T20:41:29.724Z,51.84
2018-07-13T20:45:33.231Z,51.49
2018-07-13T20:49:36.657Z,51.44
2018-07-13T20:53:40.101Z,51.87
2018-07-13T20:57:43.540Z,52.40
2018-07-13T21:01:47.000Z,51.82
2018-07-13T21:05:50.406Z,52.61
2018-07-13T21:09:53.835Z,53.00
2018-07-13T21:13:57.282Z,52.71
2018-07-13T21:18:00.705Z,52.38
2018-07-13T21:22:04.113Z,52.11
2018-07-13T21:26:07.539Z,52.10
2018-07-13T21:30:10.987Z,52.17
2018-07-13T21:34:14.437Z,52.39
2018-07-13T21:38:17.917Z,52.57
2018-07-13T21:42:21.395Z,52.36
2018-07-13T21:46:24.910Z,53.71
2018-07-13T21:50:28.364Z,53.18
2018-07-13T21:54:31.799Z,53.84
2018-07-13T21:58:35.217Z,54.20
2018-07-13T22:02:38.753Z,53.39
2018-07-13T22:06:42.318Z,53.92
2018-07-13T22:10:45.804Z,53.54
2018-07-13T22:14:49.270Z,54.52
2018-07-13T22:18:52.716Z,54.96
2018-07-13T22:22:56.152Z,55.14
2018-07-13T22:26:59.618Z,55.52
2018-07-13T22:31:03.089Z,55.85
2018-07-13T22:35:06.694Z,55.19
2018-07-13T22:39:10.121Z,55.66
2018-07-13T22:43:13.547Z,56.00
2018-07-13T22:47:16.987Z,56.20
2018-07-13T22:51:20.467Z,55.38
2018-07-13T22:55:24.004Z,55.50
2018-07-13T22:59:27.487Z,56.33
2018-07-13T23:03:32.006Z,55.78
2018-07-13T23:07:35.442Z,55.80
2018-07-13T23:11:38.910Z,56.56
2018-07-13T23:15:42.381Z,56.83
2018-07-13T23:19:45.846Z,56.53
2018-07-13T23:23:49.260Z,56.17
2018-07-13T23:27:52.695Z,56.13
2018-07-13T23:35:58.577Z,56.08
2018-07-13T23:40:02.006Z,55.98
2018-07-13T23:44:05.443Z,56.71
2018-07-13T23:48:08.855Z,56.09
2018-07-13T23:52:12.338Z,56.68
2018-07-13T23:56:15.849Z,56.02
